San Juan, PR

12:14 AM AST on June 26, 2017 (GMT -0400)
kp4.Levittown Lakes PR | | Change Station
Active Advisory: Flood Watch Active Notice: Flood Watch

Elev 24 ft 18.44 °N, 66.17 °W | Updated 13 seconds ago

Partly Cloudy
Partly Cloudy
74.7 °F
Feels Like 72 °F
N
0.0
Wind Variable Wind from SSE
Gusts 0.0 mph

Today
High -- | Low -- °F
--% Chance of Precip.
Yesterday
High -- | Low -- °F
Precip. -- in
Pressure 30.09 in
Visibility 10.0 miles
Clouds Scattered Clouds 9500 ft
Heat Index 72 °F
Dew Point 74 °F
Humidity 97%
Rainfall 0.00 in
Snow Depth Not available.
5:50 AM 7:04 PM
Waxing Crescent, 6% visible
METAR TJSJ 260356Z 00000KT 10SM SCT095 24/22 A3009 RMK AO2 RAE0258 SLP189 P0000 T02440222 403170239
Pressure 30.09 in
Visibility 10.0 miles
Clouds Scattered Clouds 9500 ft
Heat Index 72 °F
Dew Point 74 °F
Humidity 97%
Rainfall 0.00 in
Snow Depth Not available.
5:50 AM 7:04 PM
Waxing Crescent, 6% visible
METAR TJSJ 260356Z 00000KT 10SM SCT095 24/22 A3009 RMK AO2 RAE0258 SLP189 P0000 T02440222 403170239

Get Your Daily Forecast Email!

Thanks for signing up!

Be on the lookout for a verification email in your inbox.

You'll start receiving severe weather alerts in your inbox..

×

10-Day Weather Forecast

Almanac

Astronomy

Jun. 26, 2017 Rise Set
Actual Time
Civil Twilight
Nautical Twilight
Astronomical Twilight
Moon
Length of Visible Light
Length of Day
Tomorrow will be .
, % of the Moon is Illuminated

Today's Extremes

State Highs State Lows

Community

WunderPhotos

Category 6

Welcome to Category 6. This is the collective home for Weather Underground's featured writeups by Dr. Jeff Masters (right), Bob Henson (left), Chris Burt, and other regular contributors.

Nearby

Air Quality

  Air Quality AQ Index Pollutant
Not available.

Snow Depth

Station Depth Elevation

Earthquake Activity

City Distance Mag. Time & Date
Minimum magnitude displayed is 2.5.

Coastal Water Temperatures

Place Temperature

Stations

Nearby Weather Stations

Station Location Temp. Windchill Dew Point Humidity Wind Precip. Elev Updated Type
                   

Watches & Warnings

Flood Watch
Issued: National Weather Service


Jfr/rvt


jfr/rvt



jfr/rvt




Jfr/rvt